Time;durP1;ratioP1;P1;durP2;ratioP2;P2;SDS_P1;SDS_P2;PMS_P1;PMS_P2;Temp;Humidity;BMP_temperature;BMP_pressure;BME280_temperature;BME280_humidity;BME280_pressure;Samples;Min_cycle;Max_cycle;Signal;HPM_P1;HPM_P2
2021/12/07 00:00:12;;;;;;;;;0.00;0.00;;;;;6.64;73.13;100905.66;5105707;27;45626;-84
2021/12/07 00:02:37;;;;;;;;;0.00;0.00;;;;;6.69;73.12;100915.31;5105709;27;45368;-84
2021/12/07 00:05:06;;;;;;;;;0.00;0.00;;;;;6.78;73.37;100953.50;5104350;27;45866;-84
2021/12/07 00:07:32;;;;;;;;;0.00;0.00;;;;;6.74;73.40;100974.91;5103961;27;45265;-84
2021/12/07 00:09:57;;;;;;;;;0.00;0.00;;;;;6.34;73.68;100894.47;5107875;27;45331;-85
2021/12/07 00:12:25;;;;;;;;;0.00;0.00;;;;;6.31;73.61;100887.50;5105052;27;46443;-85
2021/12/07 00:14:52;;;;;;;;;0.00;0.00;;;;;6.29;73.56;100893.47;5106016;27;45285;-86
2021/12/07 00:17:18;;;;;;;;;0.00;0.00;;;;;6.13;73.64;100856.84;5106023;27;46047;-85
2021/12/07 00:19:43;;;;;;;;;0.00;0.00;;;;;6.02;73.48;100834.94;5106444;27;45316;-84
2021/12/07 00:22:09;;;;;;;;;0.00;0.00;;;;;6.71;73.67;100946.41;5106777;27;46619;-85
2021/12/07 00:24:35;;;;;;;;;0.00;0.00;;;;;6.71;73.61;100946.41;5103385;27;46107;-86
2021/12/07 00:27:00;;;;;;;;;0.00;0.00;;;;;6.54;73.59;100933.84;5106985;27;45293;-85
2021/12/07 00:29:27;;;;;;;;;0.00;0.00;;;;;6.46;73.80;100912.94;5103730;27;45254;-84
2021/12/07 00:32:07;;;;;;;;;0.00;0.00;;;;;6.42;73.57;100915.38;5102205;27;45362;-85
2021/12/07 00:37:00;;;;;;;;;0.00;0.00;;;;;5.79;73.45;100822.22;5086874;28;45463;-85
2021/12/07 00:39:27;;;;;;;;;0.00;0.00;;;;;6.13;73.57;100874.06;5084613;28;45511;-85
2021/12/07 00:41:54;;;;;;;;;0.00;0.00;;;;;6.33;73.51;100906.53;5086481;28;45191;-84
2021/12/07 00:44:22;;;;;;;;;0.00;0.00;;;;;6.28;73.22;100894.31;5083886;27;45341;-84
2021/12/07 00:46:49;;;;;;;;;0.00;0.00;;;;;5.91;73.26;100843.25;5084935;28;45495;-84
2021/12/07 00:49:15;;;;;;;;;0.00;0.00;;;;;5.92;73.30;100849.31;5084252;28;45563;-85
2021/12/07 00:51:41;;;;;;;;;0.00;0.00;;;;;6.63;73.71;100953.94;5082620;28;48796;-85
2021/12/07 00:54:07;;;;;;;;;1.00;0.00;;;;;5.87;73.51;100827.59;5084649;28;45718;-85
2021/12/07 00:56:33;;;;;;;;;0.00;0.00;;;;;6.68;73.14;100962.69;5081809;28;45227;-85
2021/12/07 00:58:58;;;;;;;;;0.00;0.00;;;;;6.45;72.93;100924.13;5086628;28;45308;-85
2021/12/07 01:01:24;;;;;;;;;0.00;0.00;;;;;6.42;72.90;100908.50;5083834;28;45471;-85
2021/12/07 01:03:51;;;;;;;;;0.00;0.00;;;;;6.08;73.02;100856.72;5084562;27;45213;-85
2021/12/07 01:06:32;;;;;;;;;0.00;0.00;;;;;6.43;72.66;100918.00;5084966;28;45385;-86
2021/12/07 01:25:14;;;;;;;;;0.00;0.00;;;;;6.10;71.30;100849.00;5083025;28;45515;-86
2021/12/07 01:27:40;;;;;;;;;0.00;0.00;;;;;6.44;71.79;100911.16;5084633;27;45369;-85
2021/12/07 01:30:14;;;;;;;;;0.00;0.00;;;;;6.26;71.32;100889.09;5083981;27;45406;-85
2021/12/07 01:38:06;;;;;;;;;0.00;0.00;;;;;6.61;71.31;100968.53;5085745;28;45302;-85
2021/12/07 01:40:50;;;;;;;;;0.00;0.00;;;;;6.28;71.34;100909.84;5083385;27;45390;-85
2021/12/07 01:43:41;;;;;;;;;0.00;0.00;;;;;6.53;71.51;100970.91;5082554;28;47367;-84
2021/12/07 02:01:46;;;;;;;;;0.00;0.00;;;;;6.08;71.30;100939.44;5083929;28;45271;-85
2021/12/07 02:04:11;;;;;;;;;0.00;0.00;;;;;6.13;71.56;100939.56;5083050;27;45932;-85
2021/12/07 02:06:37;;;;;;;;;0.00;0.00;;;;;6.16;71.46;100955.16;5081589;28;45296;-85
2021/12/07 02:09:05;;;;;;;;;0.00;0.00;;;;;5.94;71.81;100928.63;5084791;28;45219;-85
2021/12/07 02:11:31;;;;;;;;;0.00;0.00;;;;;5.53;72.00;100861.94;5083198;28;45468;-85
2021/12/07 02:16:25;;;;;;;;;0.00;0.00;;;;;6.29;71.72;100973.63;5083184;28;45399;-84
2021/12/07 02:18:51;;;;;;;;;0.00;0.00;;;;;5.99;71.28;100935.63;5082612;27;45226;-85
2021/12/07 02:21:23;;;;;;;;;0.00;0.00;;;;;6.03;71.49;100942.69;5085231;28;45251;-85
2021/12/07 02:23:49;;;;;;;;;0.00;0.00;;;;;5.69;71.40;100891.69;5082511;28;45344;-84
2021/12/07 02:26:15;;;;;;;;;0.00;0.00;;;;;5.80;71.36;100907.53;5082966;27;45318;-83
2021/12/07 02:28:41;;;;;;;;;0.00;0.00;;;;;5.76;71.23;100897.06;5082505;28;45488;-84
2021/12/07 02:31:09;;;;;;;;;0.00;0.00;;;;;6.05;71.41;100954.84;5081704;27;45463;-85
2021/12/07 02:33:35;;;;;;;;;0.00;0.00;;;;;5.51;71.33;100883.38;5093310;27;46126;-85
2021/12/07 02:36:00;;;;;;;;;0.00;0.00;;;;;5.85;71.35;100936.06;5062162;28;45284;-85
2021/12/07 02:38:26;;;;;;;;;0.00;0.00;;;;;5.51;71.23;100885.97;5063735;28;45444;-85
2021/12/07 02:40:51;;;;;;;;;0.00;0.00;;;;;6.07;71.51;100993.66;5063689;28;45456;-85
2021/12/07 02:43:17;;;;;;;;;0.00;0.00;;;;;5.54;71.51;100893.78;5072027;28;46850;-85
2021/12/07 02:45:42;;;;;;;;;0.00;0.00;;;;;5.64;71.25;100911.31;5083588;28;45298;-84
2021/12/07 02:48:08;;;;;;;;;0.00;0.00;;;;;5.72;70.95;100924.50;5082329;28;45332;-84
2021/12/07 02:50:33;;;;;;;;;0.00;0.00;;;;;5.53;71.17;100892.94;5082671;28;45383;-83
2021/12/07 02:53:00;;;;;;;;;0.00;0.00;;;;;5.63;71.09;100919.91;5082332;28;45498;-84
2021/12/07 02:55:25;;;;;;;;;1.00;0.00;;;;;5.63;71.09;100917.31;5081592;28;45346;-84
2021/12/07 02:57:51;;;;;;;;;0.00;0.00;;;;;5.60;70.90;100927.56;5082992;28;45344;-83
2021/12/07 03:00:21;;;;;;;;;0.00;0.00;;;;;5.31;70.46;100887.06;5082896;28;45481;-83
2021/12/07 03:02:56;;;;;;;;;0.00;0.00;;;;;6.05;70.93;101001.38;5083036;28;45312;-82
2021/12/07 03:05:38;;;;;;;;;0.00;0.00;;;;;6.00;70.75;100971.00;5081914;28;45377;-83
2021/12/07 03:26:41;;;;;;;;;0.00;0.00;;;;;5.88;71.71;100985.28;5085066;28;45429;-83
2021/12/07 03:29:06;;;;;;;;;0.00;0.00;;;;;5.45;72.01;100925.34;5084666;28;45266;-82
2021/12/07 03:31:33;;;;;;;;;0.00;0.00;;;;;5.76;72.05;100979.72;5086976;27;45287;-83
2021/12/07 03:34:00;;;;;;;;;0.50;0.00;;;;;5.66;71.95;100944.94;5106701;27;45344;-83
2021/12/07 03:36:26;;;;;;;;;0.00;0.00;;;;;5.90;72.04;100995.66;5105678;27;46006;-83
2021/12/07 03:38:52;;;;;;;;;0.00;0.00;;;;;5.67;72.00;100964.81;5106245;27;45257;-83
2021/12/07 03:41:18;;;;;;;;;0.00;0.00;;;;;6.07;72.26;101014.34;5105878;27;45211;-83
2021/12/07 03:43:43;;;;;;;;;0.00;0.00;;;;;6.10;72.21;101008.38;5105597;27;45226;-82
2021/12/07 03:46:09;;;;;;;;;0.00;0.00;;;;;5.81;71.86;100962.66;5104059;27;45317;-83
2021/12/07 03:48:36;;;;;;;;;1.00;1.00;;;;;5.62;72.10;100923.34;5104468;27;45294;-83
2021/12/07 03:51:03;;;;;;;;;0.00;0.00;;;;;5.71;72.29;100946.00;5106147;27;45521;-83
2021/12/07 03:53:29;;;;;;;;;0.00;0.00;;;;;5.59;71.70;100928.41;5105693;27;46175;-83
2021/12/07 03:55:55;;;;;;;;;0.00;0.00;;;;;5.61;72.16;100926.75;5104486;27;45351;-83
2021/12/07 03:58:21;;;;;;;;;0.00;0.00;;;;;6.07;72.00;100994.53;5103681;27;45464;-84
2021/12/07 04:00:47;;;;;;;;;0.00;0.00;;;;;5.94;72.19;100967.38;5106413;27;45188;-83
2021/12/07 04:03:15;;;;;;;;;0.25;0.25;;;;;5.58;71.43;100911.16;5105202;27;45340;-84
2021/12/07 04:05:48;;;;;;;;;0.00;0.00;;;;;5.88;71.74;100977.53;5104499;27;45386;-83
2021/12/07 04:08:21;;;;;;;;;0.00;0.00;;;;;5.37;71.93;100898.41;5105427;27;45270;-84
2021/12/07 04:10:47;;;;;;;;;0.00;0.00;;;;;5.91;72.24;100998.28;5105293;27;45462;-83
2021/12/07 04:13:12;;;;;;;;;1.00;0.67;;;;;5.45;72.07;100909.84;5105838;27;46558;-83
2021/12/07 04:15:38;;;;;;;;;0.00;0.00;;;;;5.59;72.74;100951.63;5104816;27;45242;-83
2021/12/07 04:18:04;;;;;;;;;0.00;0.00;;;;;5.82;72.50;101000.59;5087233;27;45225;-83
2021/12/07 04:20:30;;;;;;;;;0.00;0.00;;;;;5.63;72.10;100971.56;5105562;27;45219;-83
2021/12/07 04:22:55;;;;;;;;;0.00;0.00;;;;;5.13;72.14;100897.66;5104675;27;45331;-84
2021/12/07 04:25:23;;;;;;;;;0.00;0.00;;;;;5.41;71.83;100945.03;5110369;27;44677;-83
2021/12/07 04:27:50;;;;;;;;;0.25;0.25;;;;;5.55;72.37;100963.56;5105040;27;45381;-83
2021/12/07 04:30:20;;;;;;;;;0.00;0.00;;;;;5.62;72.21;100972.41;5105169;27;45646;-83
2021/12/07 04:32:46;;;;;;;;;0.00;0.00;;;;;5.73;72.36;101003.75;5093830;27;45323;-83
2021/12/07 04:35:13;;;;;;;;;0.00;0.00;;;;;5.69;72.26;101001.88;5066460;27;45614;-83
2021/12/07 04:37:39;;;;;;;;;0.00;0.00;;;;;5.30;72.51;100934.34;5063290;28;45391;-83
2021/12/07 04:40:09;;;;;;;;;0.00;0.00;;;;;5.28;72.33;100932.53;5064216;28;45278;-83
2021/12/07 04:42:34;;;;;;;;;0.00;0.00;;;;;5.39;72.34;100945.81;5063069;28;46561;-83
2021/12/07 04:45:04;;;;;;;;;0.00;0.00;;;;;4.88;72.41;100873.59;5064740;28;45315;-83
2021/12/07 04:47:56;;;;;;;;;0.00;0.00;;;;;5.62;72.39;101000.81;5083588;28;45300;-83
2021/12/07 04:58:17;;;;;;;;;0.00;0.00;;;;;5.66;72.67;101015.59;5083443;28;45504;-84
2021/12/07 05:00:43;;;;;;;;;1.00;1.00;;;;;5.27;72.11;100936.81;5079571;28;45380;-83
2021/12/07 05:03:12;;;;;;;;;0.00;0.00;;;;;5.52;72.17;100978.09;5083748;28;45588;-83
2021/12/07 05:05:44;;;;;;;;;0.00;0.00;;;;;5.73;72.22;101000.28;5083788;28;45262;-83
2021/12/07 05:08:13;;;;;;;;;0.00;0.00;;;;;5.74;71.96;100999.47;5083258;28;45353;-83
2021/12/07 05:37:39;;;;;;;;;0.00;0.00;;;;;5.43;72.62;100987.25;5062455;28;45344;-83
2021/12/07 05:40:11;;;;;;;;;0.00;0.00;;;;;5.47;72.89;101006.34;5062481;28;45499;-82
2021/12/07 05:42:38;;;;;;;;;0.00;0.00;;;;;5.43;72.58;100991.56;5074565;28;45525;-83
2021/12/07 05:45:06;;;;;;;;;0.00;0.00;;;;;5.13;72.67;100944.13;5080971;28;48322;-83
2021/12/07 05:47:31;;;;;;;;;0.00;0.00;;;;;5.24;73.06;100975.44;5081330;28;45347;-83
2021/12/07 05:49:57;;;;;;;;;0.00;0.00;;;;;5.47;72.74;101002.88;5083633;28;45456;-83
2021/12/07 05:52:22;;;;;;;;;0.00;0.00;;;;;4.86;72.52;100915.63;5079391;28;45420;-84
2021/12/07 05:54:48;;;;;;;;;0.00;0.00;;;;;5.00;73.23;100936.78;5082956;28;45330;-84
2021/12/07 05:57:14;;;;;;;;;0.00;0.00;;;;;4.96;72.87;100937.50;5082166;28;45639;-84
2021/12/07 05:59:40;;;;;;;;;0.00;0.00;;;;;5.16;72.74;100969.16;5083108;28;45401;-82
2021/12/07 06:02:05;;;;;;;;;0.67;0.00;;;;;5.31;73.01;101000.66;5073977;28;45505;-80
2021/12/07 06:04:31;;;;;;;;;0.00;0.00;;;;;5.23;73.08;100993.47;5080393;28;45372;-80
2021/12/07 06:06:58;;;;;;;;;0.00;0.00;;;;;5.29;72.65;100991.97;5083307;28;45262;-79
2021/12/07 06:09:24;;;;;;;;;0.00;0.00;;;;;5.28;73.01;100995.41;5082200;28;45298;-79
2021/12/07 06:11:50;;;;;;;;;0.00;0.00;;;;;5.15;72.89;100977.72;5082973;28;45709;-79
2021/12/07 06:14:19;;;;;;;;;0.00;0.00;;;;;5.19;73.02;100972.72;5080669;28;48037;-79
2021/12/07 06:16:46;;;;;;;;;0.00;0.00;;;;;5.38;72.92;101012.06;5082310;28;45291;-77
2021/12/07 06:19:11;;;;;;;;;1.00;0.00;;;;;5.05;72.76;100956.75;5082071;28;45298;-79
2021/12/07 06:21:36;;;;;;;;;0.00;0.00;;;;;5.41;72.96;101000.97;5082378;28;45502;-80
2021/12/07 06:24:02;;;;;;;;;1.00;1.00;;;;;5.31;73.24;100964.53;5081930;28;46672;-81
2021/12/07 06:26:27;;;;;;;;;0.00;0.00;;;;;5.30;72.39;100936.06;5082321;28;45275;-79
2021/12/07 06:28:53;;;;;;;;;0.00;0.00;;;;;5.63;72.79;100978.47;5081492;28;45631;-81
2021/12/07 06:31:18;;;;;;;;;0.00;0.00;;;;;5.68;72.68;100971.72;5082424;28;45216;-81
2021/12/07 06:33:43;;;;;;;;;0.00;0.00;;;;;5.55;72.42;100931.72;5104578;27;45165;-81
2021/12/07 06:36:09;;;;;;;;;0.00;0.00;;;;;5.80;72.26;100958.31;5103374;27;45255;-80
2021/12/07 06:38:35;;;;;;;;;0.00;0.00;;;;;5.82;72.44;100947.19;5074453;27;45425;-80
2021/12/07 06:41:03;;;;;;;;;0.00;0.00;;;;;5.57;72.02;100902.50;5066415;28;45551;-80
2021/12/07 06:43:29;;;;;;;;;0.00;0.00;;;;;5.90;72.19;100943.97;5068544;28;46937;-85
2021/12/07 06:45:54;;;;;;;;;0.00;0.00;;;;;5.66;71.86;100906.22;5070877;28;45433;-83
2021/12/07 06:48:20;;;;;;;;;0.00;0.00;;;;;5.79;71.99;100918.69;5063108;28;46419;-81
2021/12/07 06:50:46;;;;;;;;;0.00;0.00;;;;;5.63;71.85;100890.66;5068274;28;45338;-82
2021/12/07 06:53:12;;;;;;;;;1.75;0.00;;;;;5.98;71.56;100952.88;5061561;28;45371;-81
2021/12/07 06:55:37;;;;;;;;;0.00;0.00;;;;;5.85;71.71;100930.91;5066198;28;45284;-81
2021/12/07 06:58:04;;;;;;;;;0.75;0.00;;;;;5.98;71.98;100934.78;5069352;28;45273;-83
2021/12/07 07:00:29;;;;;;;;;2.00;2.00;;;;;5.88;71.89;100910.34;5076300;28;45540;-79
2021/12/07 07:02:55;;;;;;;;;0.00;0.00;;;;;5.99;71.84;100925.28;5061770;28;45392;-79
2021/12/07 07:05:20;;;;;;;;;0.00;0.00;;;;;6.01;71.65;100913.31;5062502;28;45374;-79
2021/12/07 07:07:46;;;;;;;;;0.00;0.00;;;;;5.89;71.86;100890.56;5064104;28;45581;-79
2021/12/07 07:10:14;;;;;;;;;0.00;0.00;;;;;5.93;71.65;100902.72;5064687;28;45335;-79
2021/12/07 07:12:40;;;;;;;;;0.75;0.75;;;;;5.86;72.08;100904.25;5064692;28;45492;-79
2021/12/07 07:15:07;;;;;;;;;0.00;0.00;;;;;5.83;71.94;100902.44;5064395;28;45265;-78
2021/12/07 07:17:32;;;;;;;;;0.00;0.00;;;;;5.70;71.96;100900.34;5086368;27;45425;-80
2021/12/07 07:19:58;;;;;;;;;0.00;0.00;;;;;5.64;72.05;100895.81;5071398;28;45180;-79
2021/12/07 07:22:23;;;;;;;;;0.00;0.00;;;;;5.31;72.13;100850.94;5074792;28;45597;-79
2021/12/07 07:24:49;;;;;;;;;0.00;0.00;;;;;5.56;72.33;100895.59;5072340;28;45224;-79
2021/12/07 07:27:14;;;;;;;;;0.00;0.00;;;;;5.51;72.24;100893.72;5073901;28;45252;-79
2021/12/07 07:29:40;;;;;;;;;1.00;0.00;;;;;5.40;72.33;100871.00;5071193;28;45654;-79
2021/12/07 07:32:05;;;;;;;;;0.00;0.00;;;;;5.44;72.67;100879.72;5076862;27;45740;-78
2021/12/07 07:34:31;;;;;;;;;2.33;0.00;;;;;5.49;72.72;100874.69;5058679;27;45284;-77
2021/12/07 07:36:56;;;;;;;;;0.00;0.00;;;;;5.47;72.48;100871.19;5084957;27;45306;-78
2021/12/07 07:39:22;;;;;;;;;1.00;0.00;;;;;5.52;73.24;100864.47;5082895;27;45440;-78
2021/12/07 07:41:48;;;;;;;;;0.00;0.00;;;;;5.43;72.74;100849.56;5083165;27;45812;-78
2021/12/07 07:44:13;;;;;;;;;0.00;0.00;;;;;5.53;72.96;100854.19;5081910;28;45315;-77
2021/12/07 07:46:39;;;;;;;;;0.75;0.00;;;;;5.29;73.00;100806.09;5082892;27;45519;-77
2021/12/07 07:49:04;;;;;;;;;0.00;0.00;;;;;5.51;73.14;100834.31;5083270;28;45319;-77
2021/12/07 07:51:31;;;;;;;;;0.00;0.00;;;;;5.45;73.46;100822.94;5082527;27;45370;-77
2021/12/07 07:53:58;;;;;;;;;0.00;0.00;;;;;5.54;72.94;100830.09;5081236;27;45407;-77
2021/12/07 07:56:23;;;;;;;;;0.00;0.00;;;;;5.43;73.33;100816.00;5082335;27;45571;-78
2021/12/07 07:58:49;;;;;;;;;1.75;1.75;;;;;5.35;72.85;100815.75;5086497;27;45359;-76
2021/12/07 08:01:14;;;;;;;;;0.75;0.75;;;;;5.42;73.28;100817.69;5083587;27;46192;-79
2021/12/07 08:03:39;;;;;;;;;3.25;1.75;;;;;5.60;73.50;100832.00;5082906;28;45384;-77
2021/12/07 08:06:05;;;;;;;;;1.00;1.00;;;;;5.60;72.89;100831.13;5078591;28;45345;-78
2021/12/07 08:08:30;;;;;;;;;1.50;0.75;;;;;5.61;73.52;100833.78;5081806;27;45544;-78
2021/12/07 08:10:55;;;;;;;;;0.00;0.00;;;;;5.34;72.93;100783.03;5081665;27;45416;-78
2021/12/07 08:13:21;;;;;;;;;0.50;0.50;;;;;5.62;73.25;100825.19;5081914;27;45631;-77
2021/12/07 08:15:48;;;;;;;;;0.25;0.00;;;;;5.60;73.11;100811.34;5083393;27;45373;-79
2021/12/07 08:18:14;;;;;;;;;0.50;0.50;;;;;5.58;73.26;100813.00;5083207;27;45283;-80
2021/12/07 08:20:41;;;;;;;;;1.00;1.00;;;;;5.49;73.20;100803.28;5090985;27;45414;-79
2021/12/07 08:23:07;;;;;;;;;2.50;0.50;;;;;5.19;73.45;100752.44;5082848;27;45302;-79
2021/12/07 08:25:42;;;;;;;;;3.00;1.25;;;;;5.54;73.43;100805.97;5081138;28;45303;-80
2021/12/07 08:28:08;;;;;;;;;0.75;0.25;;;;;5.49;73.20;100795.53;5080334;28;45367;-78
2021/12/07 08:30:38;;;;;;;;;0.25;0.25;;;;;5.37;73.74;100759.00;5085930;27;46405;-78
2021/12/07 08:33:04;;;;;;;;;2.00;0.25;;;;;5.33;73.63;100751.16;5083538;27;45295;-78
2021/12/07 08:35:31;;;;;;;;;0.75;0.75;;;;;5.38;73.74;100765.91;5077293;28;45410;-79
2021/12/07 08:37:56;;;;;;;;;1.50;1.00;;;;;5.49;73.44;100774.00;5075763;28;45207;-80
2021/12/07 08:40:24;;;;;;;;;0.75;0.00;;;;;5.59;73.43;100781.19;5075461;28;46129;-76
2021/12/07 08:42:50;;;;;;;;;0.25;0.25;;;;;5.63;73.42;100785.59;5082072;27;45271;-77
2021/12/07 08:45:18;;;;;;;;;0.75;0.00;;;;;5.56;73.77;100774.22;5078464;27;45475;-78
2021/12/07 08:47:43;;;;;;;;;1.50;1.50;;;;;5.64;73.46;100783.91;5080285;27;45295;-78
2021/12/07 08:50:14;;;;;;;;;1.00;0.00;;;;;5.65;73.54;100786.53;5081885;27;45475;-77
2021/12/07 08:52:40;;;;;;;;;0.00;0.00;;;;;5.66;73.45;100784.81;5079288;27;45378;-76
2021/12/07 09:00:17;;;;;;;;;1.50;0.75;;;;;5.47;73.60;100740.38;5079273;28;45646;-75
2021/12/07 09:02:43;;;;;;;;;0.00;0.00;;;;;5.40;73.89;100739.31;5082056;27;45369;-75
2021/12/07 09:05:09;;;;;;;;;1.00;1.00;;;;;5.29;73.77;100728.66;5081822;27;45251;-76
2021/12/07 09:07:35;;;;;;;;;2.00;1.00;;;;;5.32;73.80;100720.13;5082538;27;45365;-77
2021/12/07 09:10:02;;;;;;;;;0.75;0.75;;;;;5.18;73.66;100691.34;5080691;28;47270;-78
2021/12/07 09:12:29;;;;;;;;;7.75;1.00;;;;;5.24;73.80;100701.81;5077759;27;45230;-76
2021/12/07 09:14:55;;;;;;;;;1.00;1.00;;;;;5.26;74.12;100712.19;5079600;27;45294;-77
2021/12/07 09:17:21;;;;;;;;;0.00;0.00;;;;;5.08;74.44;100672.09;5079698;27;45565;-77
2021/12/07 09:19:46;;;;;;;;;1.00;1.00;;;;;5.16;74.31;100703.31;5081689;27;45377;-76
2021/12/07 09:22:12;;;;;;;;;2.00;2.00;;;;;5.22;74.95;100700.91;5081828;27;45389;-77
2021/12/07 09:24:37;;;;;;;;;2.00;2.00;;;;;4.99;74.70;100671.84;5081315;27;45328;-77
2021/12/07 09:27:03;;;;;;;;;0.00;0.00;;;;;4.98;74.86;100659.75;5084557;27;45517;-79
2021/12/07 09:29:29;;;;;;;;;1.00;1.00;;;;;5.02;75.05;100648.72;5092773;27;47970;-76
2021/12/07 09:31:56;;;;;;;;;1.33;1.33;;;;;5.16;74.99;100664.59;5081514;27;45455;-78
2021/12/07 09:34:22;;;;;;;;;0.00;0.00;;;;;5.14;74.96;100674.88;5080006;28;45337;-78
2021/12/07 09:36:47;;;;;;;;;0.00;0.00;;;;;4.96;75.45;100641.63;5081411;27;45218;-78
2021/12/07 09:39:16;;;;;;;;;0.25;0.25;;;;;4.96;75.61;100657.13;5080883;27;45507;-78
2021/12/07 09:41:42;;;;;;;;;0.25;0.25;;;;;4.99;75.54;100671.84;5079650;27;45526;-77
2021/12/07 09:44:08;;;;;;;;;1.00;0.00;;;;;5.15;75.30;100688.66;5079163;28;45379;-77
2021/12/07 09:46:35;;;;;;;;;2.00;1.00;;;;;5.11;75.53;100691.97;5079903;28;45424;-78
2021/12/07 09:49:01;;;;;;;;;2.25;1.00;;;;;5.05;75.67;100683.22;5081192;27;45511;-77
2021/12/07 09:51:27;;;;;;;;;0.00;0.00;;;;;5.06;76.01;100681.53;5081274;27;45468;-77
2021/12/07 09:53:56;;;;;;;;;0.25;0.25;;;;;4.85;76.06;100627.56;5081513;27;45397;-77
2021/12/07 09:56:22;;;;;;;;;0.50;0.50;;;;;4.98;75.99;100646.84;5079033;28;45584;-77
2021/12/07 09:58:50;;;;;;;;;0.33;0.33;;;;;5.05;76.23;100665.16;5078618;27;45467;-77
2021/12/07 10:01:16;;;;;;;;;0.00;0.00;;;;;4.98;76.09;100636.53;5079954;28;45371;-77
2021/12/07 10:03:41;;;;;;;;;1.00;0.00;;;;;4.99;75.35;100651.19;5081272;27;45483;-79
2021/12/07 10:06:08;;;;;;;;;0.00;0.00;;;;;4.99;75.42;100654.63;5072934;28;45321;-78
2021/12/07 10:08:34;;;;;;;;;0.00;0.00;;;;;4.99;75.87;100654.63;5096310;27;47033;-78
2021/12/07 10:11:03;;;;;;;;;0.00;0.00;;;;;5.26;75.42;100673.47;5079607;28;45458;-78
2021/12/07 10:13:31;;;;;;;;;0.00;0.00;;;;;5.29;75.82;100671.88;5082623;27;45548;-78
2021/12/07 10:15:59;;;;;;;;;0.50;0.00;;;;;5.31;75.88;100666.75;5084636;27;45309;-78
2021/12/07 10:18:27;;;;;;;;;0.50;0.50;;;;;5.33;75.69;100665.09;5080691;27;46402;-79
2021/12/07 10:20:59;;;;;;;;;0.00;0.00;;;;;5.30;75.80;100639.19;5081171;28;45312;-78
2021/12/07 10:23:37;;;;;;;;;1.25;0.00;;;;;5.28;75.57;100631.41;5080789;27;45452;-78
2021/12/07 10:26:14;;;;;;;;;0.00;0.00;;;;;5.33;75.88;100616.06;5075512;27;45765;-78
2021/12/07 10:28:47;;;;;;;;;0.00;0.00;;;;;5.36;75.97;100607.53;5075241;27;46180;-79
2021/12/07 10:31:23;;;;;;;;;0.75;0.75;;;;;5.16;76.01;100556.19;5086347;27;45456;-78
2021/12/07 10:33:52;;;;;;;;;0.33;0.33;;;;;5.40;75.98;100587.00;5078235;28;45361;-79
2021/12/07 10:36:20;;;;;;;;;0.00;0.00;;;;;5.43;76.27;100586.19;5078211;27;45299;-79
2021/12/07 10:38:55;;;;;;;;;0.00;0.00;;;;;5.44;76.21;100573.34;5085144;27;47328;-78
2021/12/07 10:41:23;;;;;;;;;0.67;0.67;;;;;5.38;76.10;100565.41;5084045;27;45490;-80
2021/12/07 10:44:07;;;;;;;;;0.00;0.00;;;;;5.40;76.73;100553.44;5083857;27;45250;-78
2021/12/07 10:46:45;;;;;;;;;0.00;0.00;;;;;5.46;76.51;100537.22;5082261;28;45785;-79
2021/12/07 10:49:18;;;;;;;;;2.00;0.50;;;;;5.53;76.83;100533.09;5095933;27;45374;-78
2021/12/07 10:51:58;;;;;;;;;0.25;0.25;;;;;5.51;76.38;100521.88;5084919;27;45359;-79
2021/12/07 10:54:24;;;;;;;;;0.25;0.25;;;;;5.54;76.69;100506.41;5083057;27;45889;-80
2021/12/07 10:56:50;;;;;;;;;0.75;0.00;;;;;5.43;76.33;100482.94;5076455;28;45436;-81
2021/12/07 10:59:16;;;;;;;;;0.25;0.25;;;;;5.52;76.37;100492.63;5079065;27;45547;-79
2021/12/07 11:01:46;;;;;;;;;0.00;0.00;;;;;5.58;76.89;100483.31;5081804;27;45429;-79
2021/12/07 11:04:21;;;;;;;;;2.00;0.00;;;;;5.60;77.07;100465.25;5074751;28;45301;-80
2021/12/07 11:07:26;;;;;;;;;1.00;1.00;;;;;5.69;77.03;100468.09;5073986;28;45322;-80
2021/12/07 11:10:00;;;;;;;;;1.50;1.50;;;;;5.73;76.92;100456.13;4997514;28;47342;-79
2021/12/07 11:12:30;;;;;;;;;1.25;0.25;;;;;5.74;77.13;100444.94;5067433;27;45433;-83
2021/12/07 11:14:58;;;;;;;;;0.50;0.00;;;;;5.75;77.73;100412.22;5084099;27;45249;-80
2021/12/07 11:17:33;;;;;;;;;0.00;0.00;;;;;5.95;76.75;100412.69;5084110;27;45378;-80
2021/12/07 11:20:01;;;;;;;;;1.00;0.75;;;;;5.64;76.77;100327.63;5079912;27;46973;-79
2021/12/07 11:22:33;;;;;;;;;1.00;0.00;;;;;6.03;76.46;100380.13;5080731;27;45268;-79
2021/12/07 11:25:02;;;;;;;;;0.00;0.00;;;;;6.07;76.75;100366.47;5078984;27;45617;-79
2021/12/07 11:30:19;;;;;;;;;3.00;0.50;;;;;6.23;76.38;100342.66;5083033;28;46211;-77
2021/12/07 11:32:51;;;;;;;;;0.00;0.00;;;;;6.26;76.15;100341.00;5081411;27;45459;-79
2021/12/07 11:35:30;;;;;;;;;0.50;0.50;;;;;6.18;76.13;100306.38;5079918;27;45429;-76
2021/12/07 11:38:00;;;;;;;;;1.00;1.00;;;;;6.35;75.95;100332.56;5084061;27;45262;-78
2021/12/07 11:40:38;;;;;;;;;0.00;0.00;;;;;6.21;75.33;100283.16;5082512;28;45525;-79
2021/12/07 11:43:17;;;;;;;;;1.75;1.00;;;;;6.41;75.84;100300.78;5082708;28;45373;-76
2021/12/07 11:45:44;;;;;;;;;0.00;0.00;;;;;6.56;75.66;100295.88;5082426;27;45315;-80
2021/12/07 11:48:10;;;;;;;;;0.00;0.00;;;;;6.61;75.24;100295.13;5077415;27;45768;-80
2021/12/07 11:50:43;;;;;;;;;2.00;0.00;;;;;6.44;75.21;100259.47;5082634;27;46098;-79
2021/12/07 11:53:15;;;;;;;;;0.00;0.00;;;;;6.51;75.32;100255.25;5073074;27;45649;-79
2021/12/07 11:55:45;;;;;;;;;0.67;0.00;;;;;6.55;75.36;100250.19;5083166;27;45366;-80
2021/12/07 11:58:11;;;;;;;;;0.67;0.67;;;;;6.66;74.98;100254.66;5080402;27;45567;-80
2021/12/07 12:00:39;;;;;;;;;1.50;1.00;;;;;6.66;74.86;100241.72;5089618;27;46261;-80
2021/12/07 12:03:08;;;;;;;;;0.00;0.00;;;;;6.76;75.03;100247.91;5088924;27;45390;-78
2021/12/07 12:05:39;;;;;;;;;1.00;0.00;;;;;6.77;74.76;100229.84;5084988;27;45482;-78
2021/12/07 12:08:09;;;;;;;;;0.00;0.00;;;;;6.74;74.25;100209.09;5081623;27;45379;-80
2021/12/07 12:10:40;;;;;;;;;0.33;0.00;;;;;6.46;74.89;100168.13;5084027;27;46156;-79
2021/12/07 12:13:33;;;;;;;;;0.00;0.00;;;;;6.77;74.98;100218.63;5087182;27;45280;-79
2021/12/07 12:16:02;;;;;;;;;0.00;0.00;;;;;6.79;74.38;100210.03;5087298;27;45425;-79
2021/12/07 12:18:57;;;;;;;;;0.00;0.00;;;;;6.77;74.94;100206.53;5082035;27;45576;-79
2021/12/07 12:21:47;;;;;;;;;0.00;0.00;;;;;6.77;74.41;100185.84;5080418;27;48501;-79
2021/12/07 12:24:47;;;;;;;;;1.00;0.00;;;;;6.84;74.65;100187.69;5079382;27;45441;-79
2021/12/07 12:27:17;;;;;;;;;0.00;0.00;;;;;6.74;74.64;100169.44;5073623;27;45653;-78
2021/12/07 12:29:44;;;;;;;;;0.00;0.00;;;;;6.70;74.37;100134.88;5073166;27;45488;-78
2021/12/07 12:32:10;;;;;;;;;0.00;0.00;;;;;6.81;74.16;100133.34;5079578;27;45428;-81
2021/12/07 12:34:48;;;;;;;;;0.00;0.00;;;;;6.85;74.89;100131.63;5075502;27;45521;-78
2021/12/07 12:37:22;;;;;;;;;0.00;0.00;;;;;6.66;74.55;100089.13;5083319;27;45583;-80
2021/12/07 12:39:55;;;;;;;;;0.33;0.00;;;;;6.99;74.30;100116.31;5081717;27;45373;-78
2021/12/07 12:42:26;;;;;;;;;0.00;0.00;;;;;6.87;73.91;100090.25;5088227;27;46136;-81
2021/12/07 12:45:03;;;;;;;;;0.00;0.00;;;;;6.96;74.29;100098.16;5078388;27;45458;-78
2021/12/07 12:47:31;;;;;;;;;0.00;0.00;;;;;6.90;74.27;100074.78;5089354;27;45615;-77
2021/12/07 12:50:10;;;;;;;;;0.25;0.25;;;;;6.94;73.94;100074.84;5084997;27;45280;-77
2021/12/07 12:52:44;;;;;;;;;0.00;0.00;;;;;6.97;74.28;100066.25;5084121;27;45453;-78
2021/12/07 12:55:27;;;;;;;;;1.00;0.00;;;;;6.97;73.81;100056.78;5079999;27;45479;-78
2021/12/07 12:57:53;;;;;;;;;0.00;0.00;;;;;6.84;73.84;100003.13;5075246;27;45439;-79
2021/12/07 13:00:19;;;;;;;;;0.00;0.00;;;;;7.00;74.37;100034.34;5080324;27;45411;-78
2021/12/07 13:02:55;;;;;;;;;1.00;0.00;;;;;6.71;74.25;99969.34;5074005;27;45405;-83
2021/12/07 13:05:34;;;;;;;;;0.00;0.00;;;;;6.98;73.93;100023.97;5085992;27;45665;-79
2021/12/07 13:08:16;;;;;;;;;0.00;0.00;;;;;7.03;73.94;100024.03;5083318;27;45432;-79
2021/12/07 13:11:03;;;;;;;;;2.00;0.00;;;;;6.97;73.47;99993.78;5074572;27;45474;-80
2021/12/07 13:13:35;;;;;;;;;1.00;0.00;;;;;6.97;73.91;100014.50;5076827;27;45406;-79
2021/12/07 13:16:13;;;;;;;;;0.00;0.00;;;;;7.08;73.71;100006.84;5083981;27;45473;-79
2021/12/07 13:18:42;;;;;;;;;0.00;0.00;;;;;7.14;73.83;99980.16;5080028;27;45436;-79
2021/12/07 13:21:42;;;;;;;;;0.00;0.00;;;;;7.05;73.76;99971.44;5074408;27;45377;-81
2021/12/07 13:24:15;;;;;;;;;0.00;0.00;;;;;7.03;73.83;99955.03;5052489;27;46773;-76